sensor_id;sensor_type;location;lat;lon;timestamp;pressure;altitude;pressure_sealevel;temperature;humidity
11444;BME280;5778;47.856;12.154;2023-05-23T00:00:46;95959.81;;;15.89;100.00
11444;BME280;5778;47.856;12.154;2023-05-23T00:03:21;95953.84;;;15.78;100.00
11444;BME280;5778;47.856;12.154;2023-05-23T00:05:48;95965.41;;;15.42;100.00
11444;BME280;5778;47.856;12.154;2023-05-23T00:08:15;95963.56;;;15.56;100.00
11444;BME280;5778;47.856;12.154;2023-05-23T00:10:43;95959.59;;;15.53;100.00
11444;BME280;5778;47.856;12.154;2023-05-23T00:13:10;95964.09;;;15.58;100.00
11444;BME280;5778;47.856;12.154;2023-05-23T00:15:39;95962.34;;;15.48;100.00
11444;BME280;5778;47.856;12.154;2023-05-23T00:18:07;95959.88;;;15.52;100.00
11444;BME280;5778;47.856;12.154;2023-05-23T00:20:38;95966.06;;;15.10;100.00
11444;BME280;5778;47.856;12.154;2023-05-23T00:23:07;95973.19;;;15.20;100.00
11444;BME280;5778;47.856;12.154;2023-05-23T00:25:34;95973.91;;;15.25;100.00
11444;BME280;5778;47.856;12.154;2023-05-23T00:28:02;95974.09;;;15.34;100.00
11444;BME280;5778;47.856;12.154;2023-05-23T00:30:30;95974.09;;;15.34;100.00
11444;BME280;5778;47.856;12.154;2023-05-23T00:32:57;95975.59;;;15.40;100.00
11444;BME280;5778;47.856;12.154;2023-05-23T00:35:26;95977.72;;;15.43;100.00
11444;BME280;5778;47.856;12.154;2023-05-23T00:37:55;95976.63;;;15.44;100.00
11444;BME280;5778;47.856;12.154;2023-05-23T00:40:22;95970.88;;;15.32;100.00
11444;BME280;5778;47.856;12.154;2023-05-23T00:42:49;95968.19;;;15.32;100.00
11444;BME280;5778;47.856;12.154;2023-05-23T00:45:19;95973.41;;;15.05;100.00
11444;BME280;5778;47.856;12.154;2023-05-23T00:47:47;95982.31;;;14.77;100.00
11444;BME280;5778;47.856;12.154;2023-05-23T00:50:15;95986.66;;;14.73;100.00
11444;BME280;5778;47.856;12.154;2023-05-23T00:52:44;95989.66;;;14.90;100.00
11444;BME280;5778;47.856;12.154;2023-05-23T00:55:13;95997.56;;;15.00;100.00
11444;BME280;5778;47.856;12.154;2023-05-23T00:57:41;95988.88;;;15.08;100.00
11444;BME280;5778;47.856;12.154;2023-05-23T01:00:11;95993.31;;;15.17;100.00
11444;BME280;5778;47.856;12.154;2023-05-23T01:02:39;96001.63;;;15.16;100.00
11444;BME280;5778;47.856;12.154;2023-05-23T01:05:26;95995.31;;;15.07;100.00
11444;BME280;5778;47.856;12.154;2023-05-23T01:07:53;96004.53;;;15.19;100.00
11444;BME280;5778;47.856;12.154;2023-05-23T01:10:24;96000.19;;;15.23;100.00
11444;BME280;5778;47.856;12.154;2023-05-23T01:13:07;95998.28;;;15.24;100.00
11444;BME280;5778;47.856;12.154;2023-05-23T01:15:39;96001.50;;;15.26;100.00
11444;BME280;5778;47.856;12.154;2023-05-23T01:18:11;96004.59;;;15.14;100.00
11444;BME280;5778;47.856;12.154;2023-05-23T01:20:44;96009.19;;;14.90;100.00
11444;BME280;5778;47.856;12.154;2023-05-23T01:23:27;96018.97;;;15.00;100.00
11444;BME280;5778;47.856;12.154;2023-05-23T01:26:13;96016.13;;;15.15;100.00
11444;BME280;5778;47.856;12.154;2023-05-23T01:28:47;96013.59;;;15.23;100.00
11444;BME280;5778;47.856;12.154;2023-05-23T01:31:16;96015.69;;;15.26;100.00
11444;BME280;5778;47.856;12.154;2023-05-23T01:36:55;96008.28;;;15.18;100.00
11444;BME280;5778;47.856;12.154;2023-05-23T01:39:22;96019.84;;;14.95;100.00
11444;BME280;5778;47.856;12.154;2023-05-23T01:41:50;96013.97;;;14.93;100.00
11444;BME280;5778;47.856;12.154;2023-05-23T01:44:21;96017.38;;;14.99;100.00
11444;BME280;5778;47.856;12.154;2023-05-23T01:46:47;96016.03;;;15.01;100.00
11444;BME280;5778;47.856;12.154;2023-05-23T01:49:15;96014.44;;;14.77;100.00
11444;BME280;5778;47.856;12.154;2023-05-23T01:51:44;96022.34;;;14.87;100.00
11444;BME280;5778;47.856;12.154;2023-05-23T01:54:27;96020.69;;;14.91;100.00
11444;BME280;5778;47.856;12.154;2023-05-23T01:56:57;96020.13;;;14.94;100.00
11444;BME280;5778;47.856;12.154;2023-05-23T01:59:26;96022.97;;;14.79;100.00
11444;BME280;5778;47.856;12.154;2023-05-23T02:01:55;96020.06;;;14.52;100.00
11444;BME280;5778;47.856;12.154;2023-05-23T02:04:38;96021.91;;;14.28;100.00
11444;BME280;5778;47.856;12.154;2023-05-23T02:07:05;96023.81;;;14.22;100.00
11444;BME280;5778;47.856;12.154;2023-05-23T02:09:32;96032.13;;;14.21;100.00
11444;BME280;5778;47.856;12.154;2023-05-23T02:11:59;96035.91;;;14.15;100.00
11444;BME280;5778;47.856;12.154;2023-05-23T02:15:06;96030.59;;;14.10;100.00
11444;BME280;5778;47.856;12.154;2023-05-23T02:17:34;96028.91;;;14.24;100.00
11444;BME280;5778;47.856;12.154;2023-05-23T02:20:04;96032.13;;;14.16;100.00
11444;BME280;5778;47.856;12.154;2023-05-23T02:22:32;96039.59;;;14.19;100.00
11444;BME280;5778;47.856;12.154;2023-05-23T02:25:04;96046.03;;;14.18;100.00
11444;BME280;5778;47.856;12.154;2023-05-23T02:27:31;96037.97;;;14.28;100.00
11444;BME280;5778;47.856;12.154;2023-05-23T02:29:58;96030.63;;;14.38;100.00
11444;BME280;5778;47.856;12.154;2023-05-23T02:32:26;96036.72;;;14.15;100.00
11444;BME280;5778;47.856;12.154;2023-05-23T02:35:15;96042.81;;;14.21;100.00
11444;BME280;5778;47.856;12.154;2023-05-23T02:37:42;96043.41;;;14.13;100.00
11444;BME280;5778;47.856;12.154;2023-05-23T02:40:09;96039.03;;;14.27;100.00
11444;BME280;5778;47.856;12.154;2023-05-23T02:42:36;96038.00;;;14.23;100.00
11444;BME280;5778;47.856;12.154;2023-05-23T02:45:05;96042.97;;;14.34;100.00
11444;BME280;5778;47.856;12.154;2023-05-23T02:47:34;96043.22;;;14.38;100.00
11444;BME280;5778;47.856;12.154;2023-05-23T02:50:01;96045.69;;;14.29;100.00
11444;BME280;5778;47.856;12.154;2023-05-23T02:52:31;96039.25;;;14.35;100.00
11444;BME280;5778;47.856;12.154;2023-05-23T02:55:03;96048.84;;;14.36;100.00
11444;BME280;5778;47.856;12.154;2023-05-23T02:57:37;96050.41;;;14.42;100.00
11444;BME280;5778;47.856;12.154;2023-05-23T03:00:05;96051.81;;;14.35;100.00
11444;BME280;5778;47.856;12.154;2023-05-23T03:02:36;96061.09;;;14.42;100.00
11444;BME280;5778;47.856;12.154;2023-05-23T03:05:15;96061.88;;;14.43;100.00
11444;BME280;5778;47.856;12.154;2023-05-23T03:07:43;96058.66;;;14.46;100.00
11444;BME280;5778;47.856;12.154;2023-05-23T03:10:10;96061.28;;;14.51;100.00
11444;BME280;5778;47.856;12.154;2023-05-23T03:12:37;96055.97;;;14.46;100.00
11444;BME280;5778;47.856;12.154;2023-05-23T03:15:17;96061.78;;;14.53;100.00
11444;BME280;5778;47.856;12.154;2023-05-23T03:17:45;96055.25;;;14.64;100.00
11444;BME280;5778;47.856;12.154;2023-05-23T03:20:14;96054.84;;;14.52;100.00
11444;BME280;5778;47.856;12.154;2023-05-23T03:22:41;96057.47;;;14.57;100.00
11444;BME280;5778;47.856;12.154;2023-05-23T03:25:33;96062.78;;;14.62;100.00
11444;BME280;5778;47.856;12.154;2023-05-23T03:28:00;96059.50;;;14.65;100.00
11444;BME280;5778;47.856;12.154;2023-05-23T03:30:27;96063.22;;;14.69;100.00
11444;BME280;5778;47.856;12.154;2023-05-23T03:32:55;96070.13;;;14.75;100.00
11444;BME280;5778;47.856;12.154;2023-05-23T03:35:42;96071.16;;;14.79;100.00
11444;BME280;5778;47.856;12.154;2023-05-23T03:38:10;96079.94;;;14.84;100.00
11444;BME280;5778;47.856;12.154;2023-05-23T03:40:37;96077.78;;;14.86;100.00
11444;BME280;5778;47.856;12.154;2023-05-23T03:43:05;96083.56;;;14.93;100.00
11444;BME280;5778;47.856;12.154;2023-05-23T03:45:35;96080.84;;;14.98;100.00
11444;BME280;5778;47.856;12.154;2023-05-23T03:48:11;96087.47;;;15.06;100.00
11444;BME280;5778;47.856;12.154;2023-05-23T03:50:39;96096.00;;;15.08;100.00
11444;BME280;5778;47.856;12.154;2023-05-23T03:53:06;96094.72;;;15.00;100.00
11444;BME280;5778;47.856;12.154;2023-05-23T03:55:34;96094.41;;;15.07;100.00
11444;BME280;5778;47.856;12.154;2023-05-23T03:58:01;96097.63;;;15.09;100.00
11444;BME280;5778;47.856;12.154;2023-05-23T04:00:28;96102.59;;;15.15;100.00
11444;BME280;5778;47.856;12.154;2023-05-23T04:02:57;96098.84;;;15.16;100.00
11444;BME280;5778;47.856;12.154;2023-05-23T04:05:49;96090.53;;;15.18;100.00
11444;BME280;5778;47.856;12.154;2023-05-23T04:08:16;96101.19;;;15.23;100.00
11444;BME280;5778;47.856;12.154;2023-05-23T04:10:47;96109.00;;;15.19;100.00
11444;BME280;5778;47.856;12.154;2023-05-23T04:13:38;96109.72;;;15.25;100.00
11444;BME280;5778;47.856;12.154;2023-05-23T04:16:06;96108.06;;;15.29;100.00
11444;BME280;5778;47.856;12.154;2023-05-23T04:18:33;96107.50;;;15.32;100.00
11444;BME280;5778;47.856;12.154;2023-05-23T04:21:02;96112.84;;;15.37;100.00
11444;BME280;5778;47.856;12.154;2023-05-23T04:23:30;96105.31;;;15.39;100.00
11444;BME280;5778;47.856;12.154;2023-05-23T04:25:57;96111.16;;;15.41;100.00
11444;BME280;5778;47.856;12.154;2023-05-23T04:28:26;96109.28;;;15.41;100.00
11444;BME280;5778;47.856;12.154;2023-05-23T04:30:53;96102.63;;;15.39;100.00
11444;BME280;5778;47.856;12.154;2023-05-23T04:33:24;96106.41;;;15.38;100.00
11444;BME280;5778;47.856;12.154;2023-05-23T04:35:53;96105.38;;;15.34;100.00
11444;BME280;5778;47.856;12.154;2023-05-23T04:38:22;96114.72;;;15.36;100.00
11444;BME280;5778;47.856;12.154;2023-05-23T04:40:50;96107.47;;;15.37;100.00
11444;BME280;5778;47.856;12.154;2023-05-23T04:43:38;96110.25;;;15.27;100.00
11444;BME280;5778;47.856;12.154;2023-05-23T04:46:33;96106.47;;;15.28;100.00
11444;BME280;5778;47.856;12.154;2023-05-23T04:49:30;96112.31;;;15.35;100.00
11444;BME280;5778;47.856;12.154;2023-05-23T04:51:58;96118.91;;;15.42;100.00
11444;BME280;5778;47.856;12.154;2023-05-23T04:54:29;96117.50;;;15.50;100.00
11444;BME280;5778;47.856;12.154;2023-05-23T04:56:58;96122.22;;;15.58;100.00
11444;BME280;5778;47.856;12.154;2023-05-23T04:59:27;96123.50;;;15.60;100.00
11444;BME280;5778;47.856;12.154;2023-05-23T05:01:54;96121.06;;;15.64;100.00
11444;BME280;5778;47.856;12.154;2023-05-23T05:04:21;96119.97;;;15.65;100.00
11444;BME280;5778;47.856;12.154;2023-05-23T05:06:49;96112.44;;;15.67;100.00
11444;BME280;5778;47.856;12.154;2023-05-23T05:09:17;96119.25;;;15.78;100.00
11444;BME280;5778;47.856;12.154;2023-05-23T05:11:46;96120.22;;;15.87;100.00
11444;BME280;5778;47.856;12.154;2023-05-23T05:14:13;96122.69;;;15.83;100.00
11444;BME280;5778;47.856;12.154;2023-05-23T05:16:40;96128.47;;;15.90;100.00
11444;BME280;5778;47.856;12.154;2023-05-23T05:19:09;96138.63;;;15.93;100.00
11444;BME280;5778;47.856;12.154;2023-05-23T05:21:36;96134.56;;;15.77;100.00
11444;BME280;5778;47.856;12.154;2023-05-23T05:24:04;96140.94;;;16.00;100.00
11444;BME280;5778;47.856;12.154;2023-05-23T05:26:34;96132.38;;;15.98;100.00
11444;BME280;5778;47.856;12.154;2023-05-23T05:29:02;96131.72;;;15.87;100.00
11444;BME280;5778;47.856;12.154;2023-05-23T05:31:29;96140.72;;;15.96;100.00
11444;BME280;5778;47.856;12.154;2023-05-23T05:33:57;96131.28;;;15.99;100.00
11444;BME280;5778;47.856;12.154;2023-05-23T05:36:25;96141.41;;;16.07;100.00
11444;BME280;5778;47.856;12.154;2023-05-23T05:38:53;96134.88;;;16.13;100.00
11444;BME280;5778;47.856;12.154;2023-05-23T05:41:20;96133.84;;;16.09;100.00
11444;BME280;5778;47.856;12.154;2023-05-23T05:43:50;96132.09;;;16.18;100.00
11444;BME280;5778;47.856;12.154;2023-05-23T05:46:18;96131.63;;;16.29;100.00
11444;BME280;5778;47.856;12.154;2023-05-23T05:48:46;96132.75;;;16.47;100.00
11444;BME280;5778;47.856;12.154;2023-05-23T05:51:14;96120.16;;;16.61;100.00
11444;BME280;5778;47.856;12.154;2023-05-23T05:53:43;96126.69;;;16.55;100.00
11444;BME280;5778;47.856;12.154;2023-05-23T05:56:10;96129.94;;;16.70;100.00
11444;BME280;5778;47.856;12.154;2023-05-23T05:58:38;96125.97;;;16.81;100.00
11444;BME280;5778;47.856;12.154;2023-05-23T06:01:10;96131.66;;;16.93;100.00
11444;BME280;5778;47.856;12.154;2023-05-23T06:03:39;96125.41;;;16.98;100.00
11444;BME280;5778;47.856;12.154;2023-05-23T06:06:06;96131.19;;;17.05;100.00
11444;BME280;5778;47.856;12.154;2023-05-23T06:08:36;96125.31;;;17.16;100.00
11444;BME280;5778;47.856;12.154;2023-05-23T06:11:03;96127.44;;;17.19;100.00
11444;BME280;5778;47.856;12.154;2023-05-23T06:13:30;96131.41;;;17.22;100.00
11444;BME280;5778;47.856;12.154;2023-05-23T06:15:57;96126.44;;;17.29;100.00
11444;BME280;5778;47.856;12.154;2023-05-23T06:18:24;96123.25;;;17.27;100.00
11444;BME280;5778;47.856;12.154;2023-05-23T06:20:53;96125.94;;;17.27;100.00
11444;BME280;5778;47.856;12.154;2023-05-23T06:23:21;96125.94;;;17.27;100.00
11444;BME280;5778;47.856;12.154;2023-05-23T06:25:49;96132.03;;;17.46;100.00
11444;BME280;5778;47.856;12.154;2023-05-23T06:28:16;96127.22;;;17.56;100.00
11444;BME280;5778;47.856;12.154;2023-05-23T06:30:44;96129.06;;;17.47;100.00
11444;BME280;5778;47.856;12.154;2023-05-23T06:33:12;96129.53;;;17.49;100.00
11444;BME280;5778;47.856;12.154;2023-05-23T06:35:38;96127.63;;;17.63;100.00
11444;BME280;5778;47.856;12.154;2023-05-23T06:38:07;96132.00;;;17.73;100.00
11444;BME280;5778;47.856;12.154;2023-05-23T06:40:33;96135.38;;;17.92;100.00
11444;BME280;5778;47.856;12.154;2023-05-23T06:43:00;96134.97;;;17.85;100.00
11444;BME280;5778;47.856;12.154;2023-05-23T06:45:56;96124.28;;;17.93;100.00
11444;BME280;5778;47.856;12.154;2023-05-23T06:48:27;96123.19;;;17.94;100.00
11444;BME280;5778;47.856;12.154;2023-05-23T06:50:53;96127.91;;;17.89;100.00
11444;BME280;5778;47.856;12.154;2023-05-23T06:53:23;96123.03;;;17.77;100.00
11444;BME280;5778;47.856;12.154;2023-05-23T06:55:50;96137.09;;;17.74;100.00
11444;BME280;5778;47.856;12.154;2023-05-23T06:58:21;96142.75;;;17.73;100.00
11444;BME280;5778;47.856;12.154;2023-05-23T07:00:49;96146.75;;;17.75;100.00
11444;BME280;5778;47.856;12.154;2023-05-23T07:03:22;96148.53;;;17.80;100.00
11444;BME280;5778;47.856;12.154;2023-05-23T07:05:49;96148.94;;;17.87;100.00
11444;BME280;5778;47.856;12.154;2023-05-23T07:08:18;96149.22;;;17.85;100.00
11444;BME280;5778;47.856;12.154;2023-05-23T07:10:58;96149.91;;;17.77;100.00
11444;BME280;5778;47.856;12.154;2023-05-23T07:13:31;96157.59;;;17.84;100.00
11444;BME280;5778;47.856;12.154;2023-05-23T07:15:59;96161.66;;;17.95;100.00
11444;BME280;5778;47.856;12.154;2023-05-23T07:18:26;96151.91;;;17.99;100.00
11444;BME280;5778;47.856;12.154;2023-05-23T07:20:55;96150.09;;;17.94;100.00
11444;BME280;5778;47.856;12.154;2023-05-23T07:23:22;96153.00;;;17.98;100.00
11444;BME280;5778;47.856;12.154;2023-05-23T07:25:50;96156.53;;;18.07;100.00
11444;BME280;5778;47.856;12.154;2023-05-23T07:28:26;96152.63;;;18.13;100.00
11444;BME280;5778;47.856;12.154;2023-05-23T07:30:54;96157.72;;;18.14;100.00
11444;BME280;5778;47.856;12.154;2023-05-23T07:33:22;96156.84;;;18.05;100.00
11444;BME280;5778;47.856;12.154;2023-05-23T07:35:51;96159.44;;;17.97;100.00
11444;BME280;5778;47.856;12.154;2023-05-23T07:38:20;96153.06;;;18.06;100.00
11444;BME280;5778;47.856;12.154;2023-05-23T07:40:47;96150.06;;;18.08;100.00
11444;BME280;5778;47.856;12.154;2023-05-23T07:43:14;96156.34;;;18.03;100.00
11444;BME280;5778;47.856;12.154;2023-05-23T07:45:42;96156.84;;;18.05;100.00
11444;BME280;5778;47.856;12.154;2023-05-23T07:48:09;96154.44;;;18.17;100.00
11444;BME280;5778;47.856;12.154;2023-05-23T07:50:38;96153.22;;;18.37;100.00
11444;BME280;5778;47.856;12.154;2023-05-23T07:53:07;96148.66;;;18.68;100.00
11444;BME280;5778;47.856;12.154;2023-05-23T07:55:34;96140.44;;;18.95;100.00
11444;BME280;5778;47.856;12.154;2023-05-23T07:58:01;96145.94;;;19.34;100.00
11444;BME280;5778;47.856;12.154;2023-05-23T08:00:28;96150.41;;;19.47;100.00
11444;BME280;5778;47.856;12.154;2023-05-23T08:03:04;96156.22;;;19.32;100.00
11444;BME280;5778;47.856;12.154;2023-05-23T08:05:37;96153.13;;;19.55;100.00
11444;BME280;5778;47.856;12.154;2023-05-23T08:08:04;96160.44;;;19.63;100.00
11444;BME280;5778;47.856;12.154;2023-05-23T08:10:31;96159.84;;;19.27;100.00
11444;BME280;5778;47.856;12.154;2023-05-23T08:13:07;96155.25;;;19.06;100.00
11444;BME280;5778;47.856;12.154;2023-05-23T08:15:40;96156.88;;;19.07;100.00
11444;BME280;5778;47.856;12.154;2023-05-23T08:18:15;96171.22;;;19.24;100.00
11444;BME280;5778;47.856;12.154;2023-05-23T08:20:42;96176.69;;;19.11;100.00
11444;BME280;5778;47.856;12.154;2023-05-23T08:23:09;96172.66;;;19.22;100.00
11444;BME280;5778;47.856;12.154;2023-05-23T08:25:38;96167.97;;;19.83;100.00
11444;BME280;5778;47.856;12.154;2023-05-23T08:28:05;96163.63;;;20.38;100.00
11444;BME280;5778;47.856;12.154;2023-05-23T08:30:48;96169.38;;;20.62;100.00
11444;BME280;5778;47.856;12.154;2023-05-23T08:33:16;96161.72;;;20.81;100.00
11444;BME280;5778;47.856;12.154;2023-05-23T08:35:45;96165.41;;;20.51;100.00
11444;BME280;5778;47.856;12.154;2023-05-23T08:38:14;96154.56;;;20.09;100.00
11444;BME280;5778;47.856;12.154;2023-05-23T08:40:55;96158.09;;;20.52;100.00
11444;BME280;5778;47.856;12.154;2023-05-23T08:43:24;96160.44;;;20.96;100.00
11444;BME280;5778;47.856;12.154;2023-05-23T08:45:52;96163.47;;;20.77;100.00
11444;BME280;5778;47.856;12.154;2023-05-23T08:48:21;96157.13;;;20.99;100.00
11444;BME280;5778;47.856;12.154;2023-05-23T08:50:51;96164.72;;;20.88;100.00
11444;BME280;5778;47.856;12.154;2023-05-23T08:53:22;96156.59;;;21.14;100.00
11444;BME280;5778;47.856;12.154;2023-05-23T08:56:00;96160.81;;;21.40;100.00
11444;BME280;5778;47.856;12.154;2023-05-23T08:58:37;96157.94;;;21.83;100.00
11444;BME280;5778;47.856;12.154;2023-05-23T09:01:05;96150.53;;;22.21;100.00
11444;BME280;5778;47.856;12.154;2023-05-23T09:03:36;96161.94;;;21.39;100.00
11444;BME280;5778;47.856;12.154;2023-05-23T09:06:29;96166.34;;;20.55;100.00
11444;BME280;5778;47.856;12.154;2023-05-23T09:08:57;96165.22;;;20.22;100.00
11444;BME280;5778;47.856;12.154;2023-05-23T09:11:24;96194.38;;;19.95;100.00
11444;BME280;5778;47.856;12.154;2023-05-23T09:13:52;96190.91;;;18.37;100.00
11444;BME280;5778;47.856;12.154;2023-05-23T09:16:21;96195.66;;;18.26;100.00
11444;BME280;5778;47.856;12.154;2023-05-23T09:18:56;96199.50;;;18.12;100.00
11444;BME280;5778;47.856;12.154;2023-05-23T09:21:24;96191.56;;;17.93;100.00
11444;BME280;5778;47.856;12.154;2023-05-23T09:24:06;96193.63;;;18.10;100.00
11444;BME280;5778;47.856;12.154;2023-05-23T09:26:33;96187.31;;;18.28;100.00
11444;BME280;5778;47.856;12.154;2023-05-23T09:29:04;96184.56;;;18.06;100.00
11444;BME280;5778;47.856;12.154;2023-05-23T09:31:31;96193.72;;;18.05;100.00
11444;BME280;5778;47.856;12.154;2023-05-23T09:34:02;96194.34;;;17.88;100.00
11444;BME280;5778;47.856;12.154;2023-05-23T09:36:30;96191.56;;;17.80;100.00
11444;BME280;5778;47.856;12.154;2023-05-23T09:39:01;96188.47;;;17.86;100.00
11444;BME280;5778;47.856;12.154;2023-05-23T09:41:32;96190.34;;;17.99;100.00
11444;BME280;5778;47.856;12.154;2023-05-23T09:44:04;96189.09;;;18.19;100.00
11444;BME280;5778;47.856;12.154;2023-05-23T09:46:34;96181.13;;;18.27;100.00
11444;BME280;5778;47.856;12.154;2023-05-23T09:49:13;96171.88;;;18.33;100.00
11444;BME280;5778;47.856;12.154;2023-05-23T09:51:41;96175.38;;;18.56;100.00
11444;BME280;5778;47.856;12.154;2023-05-23T09:54:09;96173.34;;;18.39;100.00
11444;BME280;5778;47.856;12.154;2023-05-23T09:56:39;96181.00;;;18.68;100.00
11444;BME280;5778;47.856;12.154;2023-05-23T09:59:12;96180.81;;;18.64;100.00
11444;BME280;5778;47.856;12.154;2023-05-23T10:01:43;96180.38;;;18.49;100.00
11444;BME280;5778;47.856;12.154;2023-05-23T10:04:17;96186.47;;;18.41;100.00
11444;BME280;5778;47.856;12.154;2023-05-23T10:06:51;96186.94;;;18.21;100.00
11444;BME280;5778;47.856;12.154;2023-05-23T10:09:20;96190.50;;;18.16;100.00
11444;BME280;5778;47.856;12.154;2023-05-23T10:15:12;96194.00;;;18.17;100.00
11444;BME280;5778;47.856;12.154;2023-05-23T10:17:52;96191.22;;;18.08;100.00
11444;BME280;5778;47.856;12.154;2023-05-23T10:20:24;96182.19;;;17.91;100.00
11444;BME280;5778;47.856;12.154;2023-05-23T10:22:52;96183.34;;;18.12;100.00
11444;BME280;5778;47.856;12.154;2023-05-23T10:25:20;96184.81;;;18.18;100.00
11444;BME280;5778;47.856;12.154;2023-05-23T10:27:48;96183.41;;;18.34;100.00
11444;BME280;5778;47.856;12.154;2023-05-23T10:30:15;96180.16;;;18.10;100.00
11444;BME280;5778;47.856;12.154;2023-05-23T10:32:43;96181.13;;;18.27;100.00
11444;BME280;5778;47.856;12.154;2023-05-23T10:35:16;96173.78;;;18.06;100.00
11444;BME280;5778;47.856;12.154;2023-05-23T10:37:56;96167.06;;;18.30;100.00
11444;BME280;5778;47.856;12.154;2023-05-23T10:40:31;96173.94;;;18.23;100.00
11444;BME280;5778;47.856;12.154;2023-05-23T10:43:03;96188.16;;;18.01;100.00
11444;BME280;5778;47.856;12.154;2023-05-23T10:45:38;96182.88;;;17.96;100.00
11444;BME280;5778;47.856;12.154;2023-05-23T10:48:19;96189.78;;;17.75;100.00
11444;BME280;5778;47.856;12.154;2023-05-23T10:51:00;96214.69;;;17.67;100.00
11444;BME280;5778;47.856;12.154;2023-05-23T10:53:31;96211.88;;;17.59;100.00
11444;BME280;5778;47.856;12.154;2023-05-23T10:56:00;96195.75;;;17.59;100.00
11444;BME280;5778;47.856;12.154;2023-05-23T10:58:28;96187.28;;;17.65;100.00
11444;BME280;5778;47.856;12.154;2023-05-23T11:00:59;96194.25;;;17.53;100.00
11444;BME280;5778;47.856;12.154;2023-05-23T11:03:31;96190.97;;;17.42;100.00
11444;BME280;5778;47.856;12.154;2023-05-23T11:05:59;96190.84;;;17.34;100.00
11444;BME280;5778;47.856;12.154;2023-05-23T11:08:27;96189.53;;;17.31;100.00
11444;BME280;5778;47.856;12.154;2023-05-23T11:11:04;96184.94;;;17.05;100.00
11444;BME280;5778;47.856;12.154;2023-05-23T11:13:56;96198.63;;;16.90;100.00
11444;BME280;5778;47.856;12.154;2023-05-23T11:16:26;96208.22;;;16.77;100.00
11444;BME280;5778;47.856;12.154;2023-05-23T11:19:20;96213.97;;;16.71;100.00
11444;BME280;5778;47.856;12.154;2023-05-23T11:21:53;96217.66;;;16.75;100.00
11444;BME280;5778;47.856;12.154;2023-05-23T11:24:21;96219.66;;;16.69;100.00
11444;BME280;5778;47.856;12.154;2023-05-23T11:26:54;96220.06;;;16.58;100.00
11444;BME280;5778;47.856;12.154;2023-05-23T11:29:26;96204.19;;;16.43;100.00
11444;BME280;5778;47.856;12.154;2023-05-23T11:31:53;96216.13;;;16.32;100.00
11444;BME280;5778;47.856;12.154;2023-05-23T11:34:21;96223.75;;;16.25;100.00
11444;BME280;5778;47.856;12.154;2023-05-23T11:36:52;96211.50;;;16.19;100.00
11444;BME280;5778;47.856;12.154;2023-05-23T11:39:19;96211.50;;;16.37;100.00
11444;BME280;5778;47.856;12.154;2023-05-23T11:41:59;96205.63;;;16.35;100.00
11444;BME280;5778;47.856;12.154;2023-05-23T11:44:26;96221.41;;;16.42;100.00
11444;BME280;5778;47.856;12.154;2023-05-23T11:47:00;96232.00;;;16.52;100.00
11444;BME280;5778;47.856;12.154;2023-05-23T11:49:28;96263.63;;;16.13;100.00
11444;BME280;5778;47.856;12.154;2023-05-23T11:51:56;96240.72;;;16.02;100.00
11444;BME280;5778;47.856;12.154;2023-05-23T11:54:24;96249.03;;;16.00;100.00
11444;BME280;5778;47.856;12.154;2023-05-23T11:56:51;96254.19;;;15.97;100.00
11444;BME280;5778;47.856;12.154;2023-05-23T11:59:20;96265.34;;;16.04;100.00
11444;BME280;5778;47.856;12.154;2023-05-23T12:01:48;96273.69;;;16.02;100.00
11444;BME280;5778;47.856;12.154;2023-05-23T12:04:15;96278.91;;;16.12;100.00
11444;BME280;5778;47.856;12.154;2023-05-23T12:06:46;96274.22;;;16.23;100.00
11444;BME280;5778;47.856;12.154;2023-05-23T12:09:13;96274.75;;;16.25;100.00
11444;BME280;5778;47.856;12.154;2023-05-23T12:11:41;96273.50;;;16.36;100.00
11444;BME280;5778;47.856;12.154;2023-05-23T12:14:13;96282.31;;;16.41;100.00
11444;BME280;5778;47.856;12.154;2023-05-23T12:16:42;96277.47;;;16.43;100.00
11444;BME280;5778;47.856;12.154;2023-05-23T12:19:10;96278.19;;;16.49;100.00
11444;BME280;5778;47.856;12.154;2023-05-23T12:21:42;96288.78;;;16.59;100.00
11444;BME280;5778;47.856;12.154;2023-05-23T12:24:13;96282.47;;;16.50;100.00
11444;BME280;5778;47.856;12.154;2023-05-23T12:26:47;96267.06;;;16.37;100.00
11444;BME280;5778;47.856;12.154;2023-05-23T12:29:15;96270.84;;;16.36;100.00
11444;BME280;5778;47.856;12.154;2023-05-23T12:31:47;96260.34;;;16.39;100.00
11444;BME280;5778;47.856;12.154;2023-05-23T12:34:14;96250.25;;;16.50;100.00
11444;BME280;5778;47.856;12.154;2023-05-23T12:36:41;96243.00;;;16.50;100.00
11444;BME280;5778;47.856;12.154;2023-05-23T12:39:11;96232.13;;;16.60;100.00
11444;BME280;5778;47.856;12.154;2023-05-23T12:41:40;96238.72;;;16.68;100.00
11444;BME280;5778;47.856;12.154;2023-05-23T12:44:08;96236.53;;;16.70;100.00
11444;BME280;5778;47.856;12.154;2023-05-23T12:46:36;96231.50;;;16.82;100.00
11444;BME280;5778;47.856;12.154;2023-05-23T12:49:04;96234.09;;;16.87;100.00
11444;BME280;5778;47.856;12.154;2023-05-23T12:51:31;96242.44;;;16.85;100.00
11444;BME280;5778;47.856;12.154;2023-05-23T12:53:58;96241.97;;;16.83;100.00
11444;BME280;5778;47.856;12.154;2023-05-23T12:56:25;96241.44;;;17.00;100.00
11444;BME280;5778;47.856;12.154;2023-05-23T12:58:52;96245.56;;;17.11;100.00
11444;BME280;5778;47.856;12.154;2023-05-23T13:01:20;96248.97;;;17.30;100.00
11444;BME280;5778;47.856;12.154;2023-05-23T13:03:47;96248.31;;;17.38;100.00
11444;BME280;5778;47.856;12.154;2023-05-23T13:06:16;96247.72;;;17.41;100.00
11444;BME280;5778;47.856;12.154;2023-05-23T13:08:43;96244.88;;;17.32;100.00
11444;BME280;5778;47.856;12.154;2023-05-23T13:11:10;96250.59;;;17.44;100.00
11444;BME280;5778;47.856;12.154;2023-05-23T13:13:37;96254.88;;;17.45;100.00